sensor_id;sensor_type;location;lat;lon;timestamp;P1;durP1;ratioP1;P2;durP2;ratioP2
15645;SDS011;7922;43.622;1.476;2022-08-21T00:01:18;1.63;;;1.40;;
15645;SDS011;7922;43.622;1.476;2022-08-21T00:03:46;1.57;;;1.27;;
15645;SDS011;7922;43.622;1.476;2022-08-21T00:06:13;1.50;;;1.20;;
15645;SDS011;7922;43.622;1.476;2022-08-21T00:08:38;1.50;;;1.13;;
15645;SDS011;7922;43.622;1.476;2022-08-21T00:11:05;1.77;;;1.40;;
15645;SDS011;7922;43.622;1.476;2022-08-21T00:13:31;1.40;;;1.30;;
15645;SDS011;7922;43.622;1.476;2022-08-21T00:15:57;2.10;;;1.30;;
15645;SDS011;7922;43.622;1.476;2022-08-21T00:18:23;1.93;;;1.27;;
15645;SDS011;7922;43.622;1.476;2022-08-21T00:20:50;1.37;;;1.20;;
15645;SDS011;7922;43.622;1.476;2022-08-21T00:23:16;1.20;;;0.97;;
15645;SDS011;7922;43.622;1.476;2022-08-21T00:25:43;2.20;;;1.17;;
15645;SDS011;7922;43.622;1.476;2022-08-21T00:28:10;2.33;;;1.20;;
15645;SDS011;7922;43.622;1.476;2022-08-21T00:30:37;1.93;;;1.20;;
15645;SDS011;7922;43.622;1.476;2022-08-21T00:33:03;2.77;;;1.50;;
15645;SDS011;7922;43.622;1.476;2022-08-21T00:35:31;1.90;;;1.50;;
15645;SDS011;7922;43.622;1.476;2022-08-21T00:38:01;1.30;;;1.20;;
15645;SDS011;7922;43.622;1.476;2022-08-21T00:40:30;1.70;;;1.30;;
15645;SDS011;7922;43.622;1.476;2022-08-21T00:43:06;3.50;;;1.50;;
15645;SDS011;7922;43.622;1.476;2022-08-21T00:45:34;1.40;;;1.30;;
15645;SDS011;7922;43.622;1.476;2022-08-21T00:48:00;1.50;;;1.40;;
15645;SDS011;7922;43.622;1.476;2022-08-21T00:50:27;1.50;;;1.40;;
15645;SDS011;7922;43.622;1.476;2022-08-21T00:52:57;1.60;;;1.50;;
15645;SDS011;7922;43.622;1.476;2022-08-21T00:55:25;3.17;;;1.77;;
15645;SDS011;7922;43.622;1.476;2022-08-21T00:57:52;1.70;;;1.60;;
15645;SDS011;7922;43.622;1.476;2022-08-21T01:00:23;1.60;;;1.50;;
15645;SDS011;7922;43.622;1.476;2022-08-21T01:02:53;1.60;;;1.50;;
15645;SDS011;7922;43.622;1.476;2022-08-21T01:05:20;1.57;;;1.37;;
15645;SDS011;7922;43.622;1.476;2022-08-21T01:07:46;1.83;;;1.50;;
15645;SDS011;7922;43.622;1.476;2022-08-21T01:10:12;2.47;;;1.47;;
15645;SDS011;7922;43.622;1.476;2022-08-21T01:12:37;1.70;;;1.60;;
15645;SDS011;7922;43.622;1.476;2022-08-21T01:15:05;3.13;;;1.60;;
15645;SDS011;7922;43.622;1.476;2022-08-21T01:17:32;1.33;;;1.23;;
15645;SDS011;7922;43.622;1.476;2022-08-21T01:19:59;1.50;;;1.40;;
15645;SDS011;7922;43.622;1.476;2022-08-21T01:22:26;1.40;;;1.30;;
15645;SDS011;7922;43.622;1.476;2022-08-21T01:24:52;2.27;;;1.83;;
15645;SDS011;7922;43.622;1.476;2022-08-21T01:27:18;1.63;;;1.33;;
15645;SDS011;7922;43.622;1.476;2022-08-21T01:29:45;1.60;;;1.50;;
15645;SDS011;7922;43.622;1.476;2022-08-21T01:32:44;1.60;;;1.50;;
15645;SDS011;7922;43.622;1.476;2022-08-21T01:35:12;2.00;;;1.60;;
15645;SDS011;7922;43.622;1.476;2022-08-21T01:37:39;1.57;;;1.47;;
15645;SDS011;7922;43.622;1.476;2022-08-21T01:40:05;2.33;;;1.40;;
15645;SDS011;7922;43.622;1.476;2022-08-21T01:42:32;3.40;;;1.60;;
15645;SDS011;7922;43.622;1.476;2022-08-21T01:44:58;1.87;;;1.33;;
15645;SDS011;7922;43.622;1.476;2022-08-21T01:47:24;1.50;;;1.40;;
15645;SDS011;7922;43.622;1.476;2022-08-21T01:49:50;3.20;;;1.70;;
15645;SDS011;7922;43.622;1.476;2022-08-21T01:52:16;1.20;;;1.10;;
15645;SDS011;7922;43.622;1.476;2022-08-21T01:54:42;1.43;;;1.33;;
15645;SDS011;7922;43.622;1.476;2022-08-21T01:57:08;1.50;;;1.20;;
15645;SDS011;7922;43.622;1.476;2022-08-21T01:59:35;1.63;;;1.50;;
15645;SDS011;7922;43.622;1.476;2022-08-21T02:02:01;1.60;;;1.50;;
15645;SDS011;7922;43.622;1.476;2022-08-21T02:04:28;7.13;;;1.40;;
15645;SDS011;7922;43.622;1.476;2022-08-21T02:06:55;1.50;;;1.40;;
15645;SDS011;7922;43.622;1.476;2022-08-21T02:09:20;1.57;;;1.40;;
15645;SDS011;7922;43.622;1.476;2022-08-21T02:11:46;1.80;;;1.30;;
15645;SDS011;7922;43.622;1.476;2022-08-21T02:14:13;1.57;;;1.47;;
15645;SDS011;7922;43.622;1.476;2022-08-21T02:16:40;1.83;;;1.60;;
15645;SDS011;7922;43.622;1.476;2022-08-21T02:19:08;1.63;;;1.30;;
15645;SDS011;7922;43.622;1.476;2022-08-21T02:21:35;1.63;;;1.53;;
15645;SDS011;7922;43.622;1.476;2022-08-21T02:24:01;1.43;;;1.23;;
15645;SDS011;7922;43.622;1.476;2022-08-21T02:26:27;1.63;;;1.23;;
15645;SDS011;7922;43.622;1.476;2022-08-21T02:28:53;1.30;;;1.20;;
15645;SDS011;7922;43.622;1.476;2022-08-21T02:31:19;1.30;;;1.20;;
15645;SDS011;7922;43.622;1.476;2022-08-21T02:33:45;1.47;;;1.37;;
15645;SDS011;7922;43.622;1.476;2022-08-21T02:36:11;1.83;;;1.50;;
15645;SDS011;7922;43.622;1.476;2022-08-21T02:38:39;1.70;;;1.30;;
15645;SDS011;7922;43.622;1.476;2022-08-21T02:41:08;1.77;;;1.60;;
15645;SDS011;7922;43.622;1.476;2022-08-21T02:43:35;1.50;;;1.33;;
15645;SDS011;7922;43.622;1.476;2022-08-21T02:46:02;2.17;;;1.90;;
15645;SDS011;7922;43.622;1.476;2022-08-21T02:48:29;2.13;;;1.33;;
15645;SDS011;7922;43.622;1.476;2022-08-21T02:50:58;2.30;;;1.50;;
15645;SDS011;7922;43.622;1.476;2022-08-21T02:53:26;2.40;;;1.30;;
15645;SDS011;7922;43.622;1.476;2022-08-21T02:55:53;1.43;;;1.33;;
15645;SDS011;7922;43.622;1.476;2022-08-21T02:58:23;1.63;;;1.37;;
15645;SDS011;7922;43.622;1.476;2022-08-21T03:00:53;2.80;;;1.40;;
15645;SDS011;7922;43.622;1.476;2022-08-21T03:03:19;2.23;;;1.37;;
15645;SDS011;7922;43.622;1.476;2022-08-21T03:05:46;2.37;;;1.23;;
15645;SDS011;7922;43.622;1.476;2022-08-21T03:08:12;1.90;;;1.70;;
15645;SDS011;7922;43.622;1.476;2022-08-21T03:10:40;1.30;;;1.20;;
15645;SDS011;7922;43.622;1.476;2022-08-21T03:13:07;1.40;;;1.23;;
15645;SDS011;7922;43.622;1.476;2022-08-21T03:15:34;1.83;;;1.73;;
15645;SDS011;7922;43.622;1.476;2022-08-21T03:18:00;1.40;;;1.30;;
15645;SDS011;7922;43.622;1.476;2022-08-21T03:20:27;1.37;;;1.10;;
15645;SDS011;7922;43.622;1.476;2022-08-21T03:22:54;1.60;;;1.40;;
15645;SDS011;7922;43.622;1.476;2022-08-21T03:25:24;1.80;;;1.20;;
15645;SDS011;7922;43.622;1.476;2022-08-21T03:27:51;3.00;;;1.40;;
15645;SDS011;7922;43.622;1.476;2022-08-21T03:30:18;1.40;;;1.30;;
15645;SDS011;7922;43.622;1.476;2022-08-21T03:32:45;1.30;;;1.20;;
15645;SDS011;7922;43.622;1.476;2022-08-21T03:35:15;1.37;;;1.27;;
15645;SDS011;7922;43.622;1.476;2022-08-21T03:37:41;2.63;;;1.50;;
15645;SDS011;7922;43.622;1.476;2022-08-21T03:40:08;1.40;;;1.23;;
15645;SDS011;7922;43.622;1.476;2022-08-21T03:42:36;2.03;;;1.40;;
15645;SDS011;7922;43.622;1.476;2022-08-21T03:45:02;2.03;;;1.40;;
15645;SDS011;7922;43.622;1.476;2022-08-21T03:47:28;1.23;;;1.10;;
15645;SDS011;7922;43.622;1.476;2022-08-21T03:49:54;1.40;;;1.30;;
15645;SDS011;7922;43.622;1.476;2022-08-21T03:52:20;1.57;;;1.30;;
15645;SDS011;7922;43.622;1.476;2022-08-21T03:54:46;1.33;;;1.23;;
15645;SDS011;7922;43.622;1.476;2022-08-21T03:57:12;2.33;;;1.30;;
15645;SDS011;7922;43.622;1.476;2022-08-21T03:59:38;1.57;;;1.40;;
15645;SDS011;7922;43.622;1.476;2022-08-21T04:02:07;1.50;;;1.13;;
15645;SDS011;7922;43.622;1.476;2022-08-21T04:04:34;1.27;;;1.17;;
15645;SDS011;7922;43.622;1.476;2022-08-21T04:07:00;1.63;;;1.30;;
15645;SDS011;7922;43.622;1.476;2022-08-21T04:09:26;1.30;;;1.10;;
15645;SDS011;7922;43.622;1.476;2022-08-21T04:11:52;1.60;;;1.20;;
15645;SDS011;7922;43.622;1.476;2022-08-21T04:14:18;1.40;;;1.30;;
15645;SDS011;7922;43.622;1.476;2022-08-21T04:16:45;1.40;;;1.20;;
15645;SDS011;7922;43.622;1.476;2022-08-21T04:19:11;2.30;;;1.27;;
15645;SDS011;7922;43.622;1.476;2022-08-21T04:21:38;2.13;;;1.40;;
15645;SDS011;7922;43.622;1.476;2022-08-21T04:24:05;2.73;;;1.30;;
15645;SDS011;7922;43.622;1.476;2022-08-21T04:26:32;1.97;;;1.40;;
15645;SDS011;7922;43.622;1.476;2022-08-21T04:28:59;1.57;;;1.30;;
15645;SDS011;7922;43.622;1.476;2022-08-21T04:31:25;1.80;;;1.30;;
15645;SDS011;7922;43.622;1.476;2022-08-21T04:33:53;1.80;;;1.37;;
15645;SDS011;7922;43.622;1.476;2022-08-21T04:36:20;1.97;;;1.27;;
15645;SDS011;7922;43.622;1.476;2022-08-21T04:38:45;1.30;;;1.17;;
15645;SDS011;7922;43.622;1.476;2022-08-21T04:41:11;5.23;;;1.30;;
15645;SDS011;7922;43.622;1.476;2022-08-21T04:43:38;1.50;;;1.13;;
15645;SDS011;7922;43.622;1.476;2022-08-21T04:46:04;1.40;;;1.30;;
15645;SDS011;7922;43.622;1.476;2022-08-21T04:48:30;3.40;;;1.40;;
15645;SDS011;7922;43.622;1.476;2022-08-21T04:53:47;1.50;;;1.30;;
15645;SDS011;7922;43.622;1.476;2022-08-21T04:59:04;1.83;;;1.30;;
15645;SDS011;7922;43.622;1.476;2022-08-21T05:01:35;2.10;;;1.07;;
15645;SDS011;7922;43.622;1.476;2022-08-21T05:04:03;3.03;;;1.33;;
15645;SDS011;7922;43.622;1.476;2022-08-21T05:06:31;2.07;;;1.10;;
15645;SDS011;7922;43.622;1.476;2022-08-21T05:08:59;1.80;;;1.30;;
15645;SDS011;7922;43.622;1.476;2022-08-21T05:11:26;1.50;;;1.40;;
15645;SDS011;7922;43.622;1.476;2022-08-21T05:13:53;1.23;;;1.13;;
15645;SDS011;7922;43.622;1.476;2022-08-21T05:16:19;1.40;;;1.10;;
15645;SDS011;7922;43.622;1.476;2022-08-21T05:18:45;2.73;;;1.40;;
15645;SDS011;7922;43.622;1.476;2022-08-21T05:21:10;1.87;;;1.37;;
15645;SDS011;7922;43.622;1.476;2022-08-21T05:23:36;1.65;;;1.40;;
15645;SDS011;7922;43.622;1.476;2022-08-21T05:26:02;1.20;;;1.10;;
15645;SDS011;7922;43.622;1.476;2022-08-21T05:28:29;2.07;;;1.30;;
15645;SDS011;7922;43.622;1.476;2022-08-21T05:30:55;1.17;;;1.07;;
15645;SDS011;7922;43.622;1.476;2022-08-21T05:33:21;1.30;;;1.20;;
15645;SDS011;7922;43.622;1.476;2022-08-21T05:35:49;1.30;;;1.20;;
15645;SDS011;7922;43.622;1.476;2022-08-21T05:38:16;1.23;;;1.10;;
15645;SDS011;7922;43.622;1.476;2022-08-21T05:40:42;1.57;;;1.30;;
15645;SDS011;7922;43.622;1.476;2022-08-21T05:43:08;2.33;;;1.47;;
15645;SDS011;7922;43.622;1.476;2022-08-21T05:45:34;1.70;;;1.40;;
15645;SDS011;7922;43.622;1.476;2022-08-21T05:48:07;2.47;;;1.60;;
15645;SDS011;7922;43.622;1.476;2022-08-21T05:50:36;4.37;;;1.53;;
15645;SDS011;7922;43.622;1.476;2022-08-21T05:53:03;1.67;;;1.33;;
15645;SDS011;7922;43.622;1.476;2022-08-21T05:55:29;3.17;;;1.40;;
15645;SDS011;7922;43.622;1.476;2022-08-21T05:57:55;1.53;;;1.20;;
15645;SDS011;7922;43.622;1.476;2022-08-21T06:00:21;1.40;;;1.30;;
15645;SDS011;7922;43.622;1.476;2022-08-21T06:02:48;2.00;;;1.40;;
15645;SDS011;7922;43.622;1.476;2022-08-21T06:05:15;1.50;;;1.40;;
15645;SDS011;7922;43.622;1.476;2022-08-21T06:07:41;1.77;;;1.17;;
15645;SDS011;7922;43.622;1.476;2022-08-21T06:10:07;2.10;;;1.60;;
15645;SDS011;7922;43.622;1.476;2022-08-21T06:12:33;2.50;;;1.40;;
15645;SDS011;7922;43.622;1.476;2022-08-21T06:14:58;3.50;;;1.80;;
15645;SDS011;7922;43.622;1.476;2022-08-21T06:17:24;2.07;;;1.40;;
15645;SDS011;7922;43.622;1.476;2022-08-21T06:19:51;1.40;;;1.30;;
15645;SDS011;7922;43.622;1.476;2022-08-21T06:22:18;2.40;;;1.53;;
15645;SDS011;7922;43.622;1.476;2022-08-21T06:24:44;1.80;;;1.60;;
15645;SDS011;7922;43.622;1.476;2022-08-21T06:27:09;1.50;;;1.40;;
15645;SDS011;7922;43.622;1.476;2022-08-21T06:29:35;2.27;;;1.10;;
15645;SDS011;7922;43.622;1.476;2022-08-21T06:32:02;2.40;;;1.57;;
15645;SDS011;7922;43.622;1.476;2022-08-21T06:34:28;2.70;;;1.53;;
15645;SDS011;7922;43.622;1.476;2022-08-21T06:36:54;2.50;;;1.40;;
15645;SDS011;7922;43.622;1.476;2022-08-21T06:39:19;1.10;;;1.10;;
15645;SDS011;7922;43.622;1.476;2022-08-21T06:41:45;1.80;;;1.20;;
15645;SDS011;7922;43.622;1.476;2022-08-21T06:44:11;1.37;;;1.27;;
15645;SDS011;7922;43.622;1.476;2022-08-21T06:46:37;1.40;;;1.30;;
15645;SDS011;7922;43.622;1.476;2022-08-21T06:49:02;1.73;;;1.30;;
15645;SDS011;7922;43.622;1.476;2022-08-21T06:51:28;1.93;;;1.37;;
15645;SDS011;7922;43.622;1.476;2022-08-21T06:53:54;2.50;;;1.27;;
15645;SDS011;7922;43.622;1.476;2022-08-21T06:56:20;2.43;;;1.40;;
15645;SDS011;7922;43.622;1.476;2022-08-21T06:58:46;2.63;;;1.40;;
15645;SDS011;7922;43.622;1.476;2022-08-21T07:01:12;1.87;;;1.20;;
15645;SDS011;7922;43.622;1.476;2022-08-21T07:03:39;1.20;;;1.10;;
15645;SDS011;7922;43.622;1.476;2022-08-21T07:06:07;1.93;;;1.50;;
15645;SDS011;7922;43.622;1.476;2022-08-21T07:08:35;1.20;;;1.10;;
15645;SDS011;7922;43.622;1.476;2022-08-21T07:11:03;1.57;;;1.40;;
15645;SDS011;7922;43.622;1.476;2022-08-21T07:13:32;1.30;;;1.20;;
15645;SDS011;7922;43.622;1.476;2022-08-21T07:15:57;1.50;;;1.40;;
15645;SDS011;7922;43.622;1.476;2022-08-21T07:18:23;1.40;;;1.30;;
15645;SDS011;7922;43.622;1.476;2022-08-21T07:20:49;1.60;;;1.50;;
15645;SDS011;7922;43.622;1.476;2022-08-21T07:23:24;1.30;;;1.13;;
15645;SDS011;7922;43.622;1.476;2022-08-21T07:25:53;2.23;;;1.40;;
15645;SDS011;7922;43.622;1.476;2022-08-21T07:28:19;2.47;;;1.30;;
15645;SDS011;7922;43.622;1.476;2022-08-21T07:30:45;1.50;;;1.40;;
15645;SDS011;7922;43.622;1.476;2022-08-21T07:33:15;1.80;;;1.17;;
15645;SDS011;7922;43.622;1.476;2022-08-21T07:35:41;1.40;;;1.10;;
15645;SDS011;7922;43.622;1.476;2022-08-21T07:38:07;1.10;;;1.00;;
15645;SDS011;7922;43.622;1.476;2022-08-21T07:40:33;1.83;;;1.50;;
15645;SDS011;7922;43.622;1.476;2022-08-21T07:42:58;2.13;;;1.37;;
15645;SDS011;7922;43.622;1.476;2022-08-21T07:45:24;1.40;;;1.30;;
15645;SDS011;7922;43.622;1.476;2022-08-21T07:47:50;1.50;;;1.40;;
15645;SDS011;7922;43.622;1.476;2022-08-21T07:50:17;1.93;;;1.30;;
15645;SDS011;7922;43.622;1.476;2022-08-21T07:52:43;1.40;;;1.30;;
15645;SDS011;7922;43.622;1.476;2022-08-21T07:55:11;1.53;;;1.43;;
15645;SDS011;7922;43.622;1.476;2022-08-21T07:57:38;2.13;;;1.40;;
15645;SDS011;7922;43.622;1.476;2022-08-21T08:00:06;1.33;;;1.23;;
15645;SDS011;7922;43.622;1.476;2022-08-21T08:02:43;1.20;;;1.10;;
15645;SDS011;7922;43.622;1.476;2022-08-21T08:05:26;2.40;;;1.52;;
15645;SDS011;7922;43.622;1.476;2022-08-21T08:08:25;1.23;;;1.13;;
15645;SDS011;7922;43.622;1.476;2022-08-21T08:10:52;2.00;;;1.10;;
15645;SDS011;7922;43.622;1.476;2022-08-21T08:13:21;1.60;;;1.50;;
15645;SDS011;7922;43.622;1.476;2022-08-21T08:15:50;1.40;;;1.20;;
15645;SDS011;7922;43.622;1.476;2022-08-21T08:18:16;1.50;;;1.40;;
15645;SDS011;7922;43.622;1.476;2022-08-21T08:20:42;1.30;;;1.20;;
15645;SDS011;7922;43.622;1.476;2022-08-21T08:23:11;1.20;;;1.10;;
15645;SDS011;7922;43.622;1.476;2022-08-21T08:25:38;2.53;;;1.17;;
15645;SDS011;7922;43.622;1.476;2022-08-21T08:28:04;1.70;;;1.33;;
15645;SDS011;7922;43.622;1.476;2022-08-21T08:30:31;1.27;;;1.17;;
15645;SDS011;7922;43.622;1.476;2022-08-21T08:32:57;3.30;;;1.40;;
15645;SDS011;7922;43.622;1.476;2022-08-21T08:35:24;2.03;;;1.60;;
15645;SDS011;7922;43.622;1.476;2022-08-21T08:37:51;2.73;;;1.73;;
15645;SDS011;7922;43.622;1.476;2022-08-21T08:40:22;2.07;;;1.40;;
15645;SDS011;7922;43.622;1.476;2022-08-21T08:42:58;2.73;;;1.33;;
15645;SDS011;7922;43.622;1.476;2022-08-21T08:45:24;2.73;;;1.37;;
15645;SDS011;7922;43.622;1.476;2022-08-21T08:47:57;3.83;;;1.50;;
15645;SDS011;7922;43.622;1.476;2022-08-21T08:50:49;2.30;;;1.77;;
15645;SDS011;7922;43.622;1.476;2022-08-21T08:53:28;1.13;;;1.03;;
15645;SDS011;7922;43.622;1.476;2022-08-21T08:55:58;1.23;;;1.10;;
15645;SDS011;7922;43.622;1.476;2022-08-21T08:58:29;1.30;;;0.80;;
15645;SDS011;7922;43.622;1.476;2022-08-21T09:01:01;0.83;;;0.83;;
15645;SDS011;7922;43.622;1.476;2022-08-21T09:03:31;1.67;;;0.90;;
15645;SDS011;7922;43.622;1.476;2022-08-21T09:08:50;1.43;;;1.03;;
15645;SDS011;7922;43.622;1.476;2022-08-21T09:11:41;0.87;;;0.87;;
15645;SDS011;7922;43.622;1.476;2022-08-21T09:14:33;0.80;;;0.80;;
15645;SDS011;7922;43.622;1.476;2022-08-21T09:20:02;1.67;;;1.33;;
15645;SDS011;7922;43.622;1.476;2022-08-21T09:25:42;1.20;;;1.10;;
15645;SDS011;7922;43.622;1.476;2022-08-21T09:28:15;1.10;;;1.00;;
15645;SDS011;7922;43.622;1.476;2022-08-21T09:30:41;1.17;;;1.00;;
15645;SDS011;7922;43.622;1.476;2022-08-21T09:33:09;1.53;;;1.07;;
15645;SDS011;7922;43.622;1.476;2022-08-21T09:35:47;1.73;;;1.20;;
15645;SDS011;7922;43.622;1.476;2022-08-21T09:38:25;1.10;;;0.90;;
15645;SDS011;7922;43.622;1.476;2022-08-21T09:40:57;0.80;;;0.73;;
15645;SDS011;7922;43.622;1.476;2022-08-21T09:43:28;0.80;;;0.80;;
15645;SDS011;7922;43.622;1.476;2022-08-21T09:48:27;1.57;;;0.97;;
15645;SDS011;7922;43.622;1.476;2022-08-21T09:51:04;1.23;;;0.80;;
15645;SDS011;7922;43.622;1.476;2022-08-21T09:53:37;1.20;;;0.80;;
15645;SDS011;7922;43.622;1.476;2022-08-21T09:56:18;1.80;;;0.80;;
15645;SDS011;7922;43.622;1.476;2022-08-21T09:59:28;1.33;;;0.87;;
15645;SDS011;7922;43.622;1.476;2022-08-21T10:01:57;0.70;;;0.70;;
15645;SDS011;7922;43.622;1.476;2022-08-21T10:04:31;0.73;;;0.60;;
15645;SDS011;7922;43.622;1.476;2022-08-21T10:07:13;0.77;;;0.75;;
15645;SDS011;7922;43.622;1.476;2022-08-21T10:09:40;0.90;;;0.80;;
15645;SDS011;7922;43.622;1.476;2022-08-21T10:17:31;1.50;;;1.00;;
15645;SDS011;7922;43.622;1.476;2022-08-21T10:20:14;1.05;;;1.00;;
15645;SDS011;7922;43.622;1.476;2022-08-21T10:25:58;0.75;;;0.75;;
15645;SDS011;7922;43.622;1.476;2022-08-21T10:34:16;0.90;;;0.90;;
15645;SDS011;7922;43.622;1.476;2022-08-21T10:39:36;0.93;;;0.82;;
15645;SDS011;7922;43.622;1.476;2022-08-21T10:42:27;0.88;;;0.88;;
15645;SDS011;7922;43.622;1.476;2022-08-21T10:47:48;1.20;;;0.93;;
15645;SDS011;7922;43.622;1.476;2022-08-21T10:50:24;1.98;;;1.10;;
15645;SDS011;7922;43.622;1.476;2022-08-21T10:56:02;1.50;;;0.80;;
15645;SDS011;7922;43.622;1.476;2022-08-21T10:59:02;1.55;;;1.02;;
15645;SDS011;7922;43.622;1.476;2022-08-21T11:05:02;1.90;;;1.20;;
15645;SDS011;7922;43.622;1.476;2022-08-21T11:10:22;1.67;;;1.20;;
15645;SDS011;7922;43.622;1.476;2022-08-21T11:12:54;0.85;;;0.85;;
15645;SDS011;7922;43.622;1.476;2022-08-21T11:15:45;0.57;;;0.57;;
15645;SDS011;7922;43.622;1.476;2022-08-21T11:18:21;0.60;;;0.60;;
15645;SDS011;7922;43.622;1.476;2022-08-21T11:20:54;1.10;;;0.70;;
15645;SDS011;7922;43.622;1.476;2022-08-21T11:26:13;1.20;;;1.10;;
15645;SDS011;7922;43.622;1.476;2022-08-21T11:29:17;0.77;;;0.75;;
15645;SDS011;7922;43.622;1.476;2022-08-21T11:32:04;1.35;;;1.00;;
15645;SDS011;7922;43.622;1.476;2022-08-21T11:34:42;1.45;;;1.30;;
15645;SDS011;7922;43.622;1.476;2022-08-21T11:47:56;0.85;;;0.85;;
15645;SDS011;7922;43.622;1.476;2022-08-21T11:50:30;1.73;;;0.75;;
15645;SDS011;7922;43.622;1.476;2022-08-21T11:53:00;1.40;;;0.98;;
15645;SDS011;7922;43.622;1.476;2022-08-21T11:55:34;0.93;;;0.82;;
15645;SDS011;7922;43.622;1.476;2022-08-21T11:58:09;1.13;;;0.80;;
15645;SDS011;7922;43.622;1.476;2022-08-21T12:00:54;1.40;;;0.95;;
15645;SDS011;7922;43.622;1.476;2022-08-21T12:03:25;0.85;;;0.85;;
15645;SDS011;7922;43.622;1.476;2022-08-21T12:06:15;0.80;;;0.80;;
15645;SDS011;7922;43.622;1.476;2022-08-21T12:08:41;1.23;;;0.90;;
15645;SDS011;7922;43.622;1.476;2022-08-21T12:13:58;1.00;;;0.80;;
15645;SDS011;7922;43.622;1.476;2022-08-21T12:16:29;1.02;;;0.80;;
15645;SDS011;7922;43.622;1.476;2022-08-21T12:19:05;1.10;;;1.00;;
15645;SDS011;7922;43.622;1.476;2022-08-21T12:21:32;0.80;;;0.80;;
15645;SDS011;7922;43.622;1.476;2022-08-21T12:26:35;1.20;;;0.80;;
15645;SDS011;7922;43.622;1.476;2022-08-21T12:31:51;2.50;;;0.80;;
15645;SDS011;7922;43.622;1.476;2022-08-21T12:34:22;0.70;;;0.70;;
15645;SDS011;7922;43.622;1.476;2022-08-21T12:36:57;0.68;;;0.60;;
15645;SDS011;7922;43.622;1.476;2022-08-21T12:39:29;1.10;;;1.00;;
15645;SDS011;7922;43.622;1.476;2022-08-21T12:42:11;0.75;;;0.75;;
15645;SDS011;7922;43.622;1.476;2022-08-21T12:44:45;1.17;;;0.60;;
15645;SDS011;7922;43.622;1.476;2022-08-21T12:47:34;0.95;;;0.80;;
15645;SDS011;7922;43.622;1.476;2022-08-21T12:50:11;1.15;;;1.00;;
15645;SDS011;7922;43.622;1.476;2022-08-21T12:52:48;0.65;;;0.65;;
15645;SDS011;7922;43.622;1.476;2022-08-21T12:55:28;1.00;;;0.68;;
15645;SDS011;7922;43.622;1.476;2022-08-21T12:57:56;0.80;;;0.70;;
15645;SDS011;7922;43.622;1.476;2022-08-21T13:00:27;0.80;;;0.70;;
15645;SDS011;7922;43.622;1.476;2022-08-21T13:02:54;0.80;;;0.80;;
15645;SDS011;7922;43.622;1.476;2022-08-21T13:07:50;1.00;;;0.80;;
15645;SDS011;7922;43.622;1.476;2022-08-21T13:10:20;0.85;;;0.80;;
15645;SDS011;7922;43.622;1.476;2022-08-21T13:12:54;0.70;;;0.70;;
15645;SDS011;7922;43.622;1.476;2022-08-21T13:15:26;0.98;;;0.80;;
15645;SDS011;7922;43.622;1.476;2022-08-21T13:17:55;1.40;;;0.88;;
15645;SDS011;7922;43.622;1.476;2022-08-21T13:20:28;1.63;;;0.80;;
15645;SDS011;7922;43.622;1.476;2022-08-21T13:22:59;0.80;;;0.80;;
15645;SDS011;7922;43.622;1.476;2022-08-21T13:25:29;1.00;;;0.65;;
15645;SDS011;7922;43.622;1.476;2022-08-21T13:28:06;1.00;;;0.90;;
15645;SDS011;7922;43.622;1.476;2022-08-21T13:30:34;0.90;;;0.90;;
15645;SDS011;7922;43.622;1.476;2022-08-21T13:33:05;1.23;;;0.90;;
15645;SDS011;7922;43.622;1.476;2022-08-21T13:38:25;0.93;;;0.88;;
15645;SDS011;7922;43.622;1.476;2022-08-21T13:40:55;1.27;;;0.90;;
15645;SDS011;7922;43.622;1.476;2022-08-21T13:43:27;0.90;;;0.90;;
15645;SDS011;7922;43.622;1.476;2022-08-21T13:45:56;0.90;;;0.90;;
15645;SDS011;7922;43.622;1.476;2022-08-21T13:48:24;0.90;;;0.90;;
15645;SDS011;7922;43.622;1.476;2022-08-21T13:50:54;0.90;;;0.90;;
15645;SDS011;7922;43.622;1.476;2022-08-21T13:53:31;1.55;;;0.90;;
15645;SDS011;7922;43.622;1.476;2022-08-21T13:56:02;0.80;;;0.80;;
15645;SDS011;7922;43.622;1.476;2022-08-21T13:58:30;1.80;;;0.88;;
15645;SDS011;7922;43.622;1.476;2022-08-21T14:01:19;0.88;;;0.85;;
15645;SDS011;7922;43.622;1.476;2022-08-21T14:03:45;1.10;;;1.00;;
15645;SDS011;7922;43.622;1.476;2022-08-21T14:06:15;0.82;;;0.82;;
15645;SDS011;7922;43.622;1.476;2022-08-21T14:09:01;1.02;;;0.80;;
15645;SDS011;7922;43.622;1.476;2022-08-21T14:11:36;0.90;;;0.85;;
15645;SDS011;7922;43.622;1.476;2022-08-21T14:14:26;2.58;;;1.25;;
15645;SDS011;7922;43.622;1.476;2022-08-21T14:17:01;1.60;;;1.05;;
15645;SDS011;7922;43.622;1.476;2022-08-21T14:19:36;1.10;;;1.00;;
15645;SDS011;7922;43.622;1.476;2022-08-21T14:22:21;1.02;;;0.90;;
15645;SDS011;7922;43.622;1.476;2022-08-21T14:25:01;1.65;;;1.08;;
15645;SDS011;7922;43.622;1.476;2022-08-21T14:27:28;1.48;;;1.13;;
15645;SDS011;7922;43.622;1.476;2022-08-21T14:30:08;1.08;;;1.05;;
15645;SDS011;7922;43.622;1.476;2022-08-21T14:32:37;2.65;;;1.35;;
15645;SDS011;7922;43.622;1.476;2022-08-21T14:35:05;1.30;;;1.20;;
15645;SDS011;7922;43.622;1.476;2022-08-21T14:37:31;1.23;;;1.13;;
15645;SDS011;7922;43.622;1.476;2022-08-21T14:39:57;1.40;;;1.30;;
15645;SDS011;7922;43.622;1.476;2022-08-21T14:42:23;1.45;;;1.35;;
15645;SDS011;7922;43.622;1.476;2022-08-21T14:44:50;1.20;;;1.10;;
15645;SDS011;7922;43.622;1.476;2022-08-21T14:47:16;1.38;;;1.25;;
15645;SDS011;7922;43.622;1.476;2022-08-21T14:49:42;1.40;;;1.30;;
15645;SDS011;7922;43.622;1.476;2022-08-21T14:52:08;1.48;;;1.30;;
15645;SDS011;7922;43.622;1.476;2022-08-21T14:54:34;1.40;;;1.30;;
15645;SDS011;7922;43.622;1.476;2022-08-21T14:57:08;1.85;;;1.30;;
15645;SDS011;7922;43.622;1.476;2022-08-21T14:59:35;1.50;;;1.40;;
15645;SDS011;7922;43.622;1.476;2022-08-21T15:02:02;1.50;;;1.40;;
15645;SDS011;7922;43.622;1.476;2022-08-21T15:04:29;1.40;;;1.27;;
15645;SDS011;7922;43.622;1.476;2022-08-21T15:06:55;1.50;;;1.17;;
15645;SDS011;7922;43.622;1.476;2022-08-21T15:09:21;1.58;;;1.20;;
15645;SDS011;7922;43.622;1.476;2022-08-21T15:11:48;5.50;;;1.52;;
15645;SDS011;7922;43.622;1.476;2022-08-21T15:14:20;1.40;;;1.30;;
15645;SDS011;7922;43.622;1.476;2022-08-21T15:16:48;1.30;;;1.20;;
15645;SDS011;7922;43.622;1.476;2022-08-21T15:19:15;1.20;;;1.10;;
15645;SDS011;7922;43.622;1.476;2022-08-21T15:21:41;1.83;;;1.25;;
15645;SDS011;7922;43.622;1.476;2022-08-21T15:24:06;1.20;;;1.10;;
15645;SDS011;7922;43.622;1.476;2022-08-21T15:26:32;1.10;;;1.00;;
15645;SDS011;7922;43.622;1.476;2022-08-21T15:28:59;1.25;;;1.15;;
15645;SDS011;7922;43.622;1.476;2022-08-21T15:31:25;1.55;;;1.35;;
15645;SDS011;7922;43.622;1.476;2022-08-21T15:33:52;1.25;;;1.15;;
15645;SDS011;7922;43.622;1.476;2022-08-21T15:36:18;1.27;;;1.17;;
15645;SDS011;7922;43.622;1.476;2022-08-21T15:38:44;1.33;;;1.23;;
15645;SDS011;7922;43.622;1.476;2022-08-21T15:41:10;1.45;;;1.35;;
15645;SDS011;7922;43.622;1.476;2022-08-21T15:43:45;1.70;;;1.45;;
15645;SDS011;7922;43.622;1.476;2022-08-21T15:46:13;1.30;;;1.20;;
15645;SDS011;7922;43.622;1.476;2022-08-21T15:48:40;1.30;;;1.20;;
15645;SDS011;7922;43.622;1.476;2022-08-21T15:51:06;1.88;;;1.20;;
15645;SDS011;7922;43.622;1.476;2022-08-21T15:53:33;1.55;;;1.40;;
15645;SDS011;7922;43.622;1.476;2022-08-21T15:56:03;1.30;;;1.20;;
15645;SDS011;7922;43.622;1.476;2022-08-21T15:58:31;1.42;;;1.33;;
15645;SDS011;7922;43.622;1.476;2022-08-21T16:01:00;1.45;;;1.25;;
15645;SDS011;7922;43.622;1.476;2022-08-21T16:03:26;1.35;;;1.10;;
15645;SDS011;7922;43.622;1.476;2022-08-21T16:05:53;1.20;;;1.10;;
15645;SDS011;7922;43.622;1.476;2022-08-21T16:08:21;1.23;;;1.17;;
15645;SDS011;7922;43.622;1.476;2022-08-21T16:10:48;1.10;;;1.00;;
15645;SDS011;7922;43.622;1.476;2022-08-21T16:13:16;1.35;;;1.25;;
15645;SDS011;7922;43.622;1.476;2022-08-21T16:15:49;1.48;;;1.30;;
15645;SDS011;7922;43.622;1.476;2022-08-21T16:18:15;1.30;;;1.20;;
15645;SDS011;7922;43.622;1.476;2022-08-21T16:20:43;1.70;;;1.38;;
15645;SDS011;7922;43.622;1.476;2022-08-21T16:23:08;1.60;;;1.25;;
15645;SDS011;7922;43.622;1.476;2022-08-21T16:25:35;1.15;;;1.05;;
15645;SDS011;7922;43.622;1.476;2022-08-21T16:28:04;1.67;;;1.20;;